Nearby METAR Reports

 

KBFI - Boeing Field Seattle, WA, USA
Distance from station: SE 4mi, 7km
Updated: Tue, 28-Sep-2021 6:53am PDT
Overcast
Overcast
 Wind from SSE
Wind: SSE 10 mph , 17 km/h
Temperature: 54°F , 12°C
Dew Point: 48°F , 9°C
Humidity: 82%
Barometer: 29.92 inHg , 1013.2 hPa
Clouds: Overcast
Visibility: 10 miles , 16 km
Cloud details: Overcast 2300 ft
2021/09/28 13:53 KBFI 281353Z 16009KT 10SM OVC023 12/09 A2992 RMK AO2 SLP131 T01170094
KSEA - Seattle/Metro, WA, USA
Distance from station: NE 5mi, 8km
Updated: Tue, 28-Sep-2021 6:53am PDT
Mostly cloudy
Mostly cloudy
 Wind from S
Wind: S 15 mph , 24 km/h
Temperature: 52°F , 11°C
Dew Point: 48°F , 9°C
Humidity: 88%
Barometer: 29.92 inHg , 1013.2 hPa
Clouds: Mostly cloudy
Visibility: 10 miles , 16 km
Cloud details: Mostly cloudy 2100 ft
2021/09/28 13:53 KSEA 281353Z 19013KT 10SM BKN021 11/09 A2992 RMK AO2 SLP139 T01110089
 
KTIW - Tacoma, WA, USA
Distance from station: S 30mi, 45km
Updated: Tue, 28-Sep-2021 6:53am PDT
Overcast
Overcast
 Wind from S
Wind: S 14 mph , 22 km/h
Temperature: 52°F , 11°C
Dew Point: 50°F , 10°C
Humidity: 94%
Barometer: 29.94 inHg , 1013.9 hPa
Clouds: Overcast
Visibility: 10 miles , 16 km
Cloud details: Overcast 2200 ft
2021/09/28 13:53 KTIW 281353Z AUTO 19012KT 10SM OVC022 11/10 A2994 RMK AO2 SLP138 T01060100
KCLM - Port Angeles, WA, USA
Distance from station: NW 70mi, 100km
Updated: Tue, 28-Sep-2021 6:53am PDT
Overcast
Overcast
 Wind from SW
Wind: SW 9 mph , 15 km/h
Temperature: 52°F , 11°C
Dew Point: 46°F , 8°C
Humidity: 82%
Barometer: 29.89 inHg , 1012.2 hPa
Clouds: Overcast
Visibility: 10 miles , 16 km
Cloud details: Mostly cloudy 4200 ft
Mostly cloudy 5000 ft
Overcast 7000 ft
2021/09/28 13:53 KCLM 281353Z AUTO 23008KT 10SM BKN042 BKN050 OVC070 11/08 A2989 RMK AO2 RAE1258B22E38 SLP122 P0000 T01110083